Humidity-temperature Sensor

Selected Measurement Type: Relative Humidity

 
Relative Humidity [%]     6 entries per hour
Showing data from 11/10/2021 (00:00:00 Z) to 11/9/2021 (00:01:00 Z)
Previous Next [ Day | 3-Days | 7-Days ]
First Last
Prev [ Day | 3-Days | 7-Days ] Next
First Last

Start Time:     :
End Time:     :     
Time (in GMT) :00 :50 :40 :30 :20 :10
Previous Next [ Day | 3-Days | 7-Days ]
First Last
Prev [ Day | 3-Days | 7-Days ] Next
First Last


123 => good data
MM => data is determined as missing
-- => data not received/configured
Back to Top Back to Top
11/10/2021 00:00 to 23:10 80.48 80.81 81.31 84.41 84.82 84.32
11/9/2021 23:00 to 22:10 83.20 83.22 82.39 82.31 82.56 82.37
11/9/2021 22:00 to 21:10 81.23 79.98 78.40 77.61 78.51 77.42
11/9/2021 21:00 to 20:10 76.07 74.95 73.52 74.35 74.70 76.16
11/9/2021 20:00 to 19:10 76.66 76.41 76.07 77.22 76.74 77.72
11/9/2021 19:00 to 18:10 77.84 77.63 77.82 78.75 81.37 81.37
11/9/2021 18:00 to 17:10 80.73 82.45 82.64 82.81 83.45 85.11
11/9/2021 17:00 to 16:10 85.36 83.37 75.64 75.78 73.77 74.97
11/9/2021 16:00 to 15:10 74.35 77.05 83.62 82.83 82.14 83.95
11/9/2021 15:00 to 14:10 86.84 85.84 86.76 87.63 88.23 87.48
11/9/2021 14:00 to 13:10 87.61 87.36 88.56 90.66 90.19 87.50
11/9/2021 13:00 to 12:10 81.56 85.11 90.58 90.50 90.77 92.14
11/9/2021 12:00 to 11:10 92.43 90.39 88.54 88.36 88.32 89.67
11/9/2021 11:00 to 10:10 91.45 92.14 92.16 92.83 94.45 94.74
11/9/2021 10:00 to 9:10 93.93 92.83 91.83 91.83 91.58 90.37
11/9/2021 09:00 to 8:10 89.06 90.25 91.66 92.99 91.08 89.50
11/9/2021 08:00 to 7:10 85.68 85.51 86.74 86.94 87.73 87.96
11/9/2021 07:00 to 6:10 87.82 86.84 86.71 87.28 86.32 88.17
11/9/2021 06:00 to 5:10 88.61 88.67 89.65 89.56 89.23 89.08
11/9/2021 05:00 to 4:10 90.68 90.56 90.56 89.79 87.57 86.59
11/9/2021 04:00 to 3:10 85.92 84.64 82.66 79.48 77.01 76.59
11/9/2021 03:00 to 2:10 77.59 77.03 82.85 84.16 83.58 84.95
11/9/2021 02:00 to 1:10 87.90 88.63 88.42 88.77 87.69 86.98
11/9/2021 01:00 to 0:10 87.07 87.59 88.42 88.83 85.49 83.76